<?xml version='1.0' encoding='UTF-8'?><gpx version="1.1" creator="JPX - https://github.com/jenetics/jpx" xmlns="http://www.topografix.com/GPX/1/1"><trk><trkseg><trkpt lat="42.5677681" lon="12.6482346"><ele>136.0</ele><time>2026-04-24T09:36:56.069Z</time></trkpt><trkpt lat="42.5678063" lon="12.6481598"><ele>136.0</ele><time>2026-04-24T09:37:04.985Z</time></trkpt><trkpt lat="42.5678829" lon="12.6481294"><ele>136.0</ele><time>2026-04-24T09:37:21.05Z</time></trkpt><trkpt lat="42.5679128" lon="12.6480264"><ele>136.0</ele><time>2026-04-24T09:37:24.115Z</time></trkpt><trkpt lat="42.5678956" lon="12.6479361"><ele>136.0</ele><time>2026-04-24T09:37:25.05Z</time></trkpt><trkpt lat="42.5679133" lon="12.647823"><ele>136.0</ele><time>2026-04-24T09:37:28.075Z</time></trkpt><trkpt lat="42.5679736" lon="12.6477622"><ele>135.33333333333334</ele><time>2026-04-24T09:37:31.05Z</time></trkpt><trkpt lat="42.5679914" lon="12.6476542"><ele>134.66666666666669</ele><time>2026-04-24T09:37:34.05Z</time></trkpt><trkpt lat="42.5680112" lon="12.6475368"><ele>134.0</ele><time>2026-04-24T09:37:37.051Z</time></trkpt><trkpt lat="42.5680073" lon="12.6474346"><ele>133.33333333333334</ele><time>2026-04-24T09:37:40.051Z</time></trkpt><trkpt lat="42.5680241" lon="12.647349"><ele>132.66666666666666</ele><time>2026-04-24T09:37:43.051Z</time></trkpt><trkpt lat="42.568079" lon="12.6472308"><ele>132.0</ele><time>2026-04-24T09:37:46.051Z</time></trkpt><trkpt lat="42.568097" lon="12.6471483"><ele>132.0</ele><time>2026-04-24T09:37:48.051Z</time></trkpt><trkpt lat="42.5681194" lon="12.6470572"><ele>132.0</ele><time>2026-04-24T09:37:52.051Z</time></trkpt><trkpt lat="42.5681344" lon="12.6469598"><ele>132.0</ele><time>2026-04-24T09:37:55.05Z</time></trkpt><trkpt lat="42.5681312" lon="12.6468662"><ele>132.0</ele><time>2026-04-24T09:38:02.05Z</time></trkpt><trkpt lat="42.5681109" lon="12.6467794"><ele>132.0</ele><time>2026-04-24T09:38:04.05Z</time></trkpt><trkpt lat="42.568075" lon="12.646708"><ele>132.0</ele><time>2026-04-24T09:38:06.05Z</time></trkpt><trkpt lat="42.568009" lon="12.6466323"><ele>132.0</ele><time>2026-04-24T09:38:08.051Z</time></trkpt><trkpt lat="42.5679397" lon="12.6465608"><ele>131.83333333333334</ele><time>2026-04-24T09:38:10.05Z</time></trkpt><trkpt lat="42.5678804" lon="12.6464947"><ele>131.66666666666666</ele><time>2026-04-24T09:38:12.051Z</time></trkpt><trkpt lat="42.5678269" lon="12.6464332"><ele>131.5</ele><time>2026-04-24T09:38:14.051Z</time></trkpt><trkpt lat="42.5677787" lon="12.6463754"><ele>131.33333333333331</ele><time>2026-04-24T09:38:16.05Z</time></trkpt><trkpt lat="42.567727" lon="12.646266"><ele>131.16666666666666</ele><time>2026-04-24T09:38:18.051Z</time></trkpt><trkpt lat="42.5676598" lon="12.6461993"><ele>131.0</ele><time>2026-04-24T09:38:20.051Z</time></trkpt><trkpt lat="42.5675876" lon="12.6461137"><ele>131.0</ele><time>2026-04-24T09:38:22.05Z</time></trkpt><trkpt lat="42.5675409" lon="12.6460524"><ele>131.0</ele><time>2026-04-24T09:38:23.051Z</time></trkpt><trkpt lat="42.5674903" lon="12.6459953"><ele>131.0</ele><time>2026-04-24T09:38:24.051Z</time></trkpt><trkpt lat="42.5674424" lon="12.6459226"><ele>131.0</ele><time>2026-04-24T09:38:25.051Z</time></trkpt><trkpt lat="42.5673945" lon="12.6458619"><ele>131.0</ele><time>2026-04-24T09:38:26.05Z</time></trkpt><trkpt lat="42.5673144" lon="12.6457825"><ele>131.0</ele><time>2026-04-24T09:38:28.05Z</time></trkpt><trkpt lat="42.5672717" lon="12.6456999"><ele>131.0</ele><time>2026-04-24T09:38:30.05Z</time></trkpt><trkpt lat="42.5672515" lon="12.6456125"><ele>131.0</ele><time>2026-04-24T09:38:32.051Z</time></trkpt><trkpt lat="42.5672192" lon="12.6454966"><ele>131.0</ele><time>2026-04-24T09:38:36.051Z</time></trkpt><trkpt lat="42.5672846" lon="12.6453892"><ele>131.0</ele><time>2026-04-24T09:38:38.05Z</time></trkpt><trkpt lat="42.5673135" lon="12.6452407"><ele>131.0</ele><time>2026-04-24T09:38:40.05Z</time></trkpt><trkpt lat="42.5673536" lon="12.6450893"><ele>131.0</ele><time>2026-04-24T09:38:42.051Z</time></trkpt><trkpt lat="42.5673834" lon="12.644998"><ele>131.16666666666666</ele><time>2026-04-24T09:38:43.05Z</time></trkpt><trkpt lat="42.5674076" lon="12.6449053"><ele>131.33333333333331</ele><time>2026-04-24T09:38:44.051Z</time></trkpt><trkpt lat="42.5674355" lon="12.6448149"><ele>131.5</ele><time>2026-04-24T09:38:45.05Z</time></trkpt><trkpt lat="42.5674511" lon="12.6447056"><ele>131.66666666666666</ele><time>2026-04-24T09:38:46.051Z</time></trkpt><trkpt lat="42.5674718" lon="12.6446085"><ele>131.83333333333334</ele><time>2026-04-24T09:38:47.05Z</time></trkpt><trkpt lat="42.5674797" lon="12.6445001"><ele>132.0</ele><time>2026-04-24T09:38:48.051Z</time></trkpt><trkpt lat="42.5674935" lon="12.6444066"><ele>132.0</ele><time>2026-04-24T09:38:49.051Z</time></trkpt><trkpt lat="42.5675282" lon="12.6443064"><ele>132.0</ele><time>2026-04-24T09:38:50.05Z</time></trkpt><trkpt lat="42.5675421" lon="12.6442104"><ele>132.0</ele><time>2026-04-24T09:38:51.051Z</time></trkpt><trkpt lat="42.5675651" lon="12.6441169"><ele>132.0</ele><time>2026-04-24T09:38:52.05Z</time></trkpt><trkpt lat="42.5675965" lon="12.6440034"><ele>132.0</ele><time>2026-04-24T09:38:53.051Z</time></trkpt><trkpt lat="42.5676294" lon="12.6438998"><ele>132.0</ele><time>2026-04-24T09:38:54.05Z</time></trkpt><trkpt lat="42.5676474" lon="12.6437928"><ele>132.0</ele><time>2026-04-24T09:38:55.05Z</time></trkpt><trkpt lat="42.5676547" lon="12.643692"><ele>132.0</ele><time>2026-04-24T09:38:56.051Z</time></trkpt><trkpt lat="42.5676781" lon="12.6435908"><ele>132.0</ele><time>2026-04-24T09:38:57.05Z</time></trkpt><trkpt lat="42.5676978" lon="12.6434923"><ele>132.0</ele><time>2026-04-24T09:38:58.05Z</time></trkpt><trkpt lat="42.5676962" lon="12.6433735"><ele>132.0</ele><time>2026-04-24T09:38:59.05Z</time></trkpt><trkpt lat="42.5677476" lon="12.6432105"><ele>132.0</ele><time>2026-04-24T09:39:01.05Z</time></trkpt><trkpt lat="42.5678155" lon="12.6430452"><ele>132.16666666666666</ele><time>2026-04-24T09:39:03.05Z</time></trkpt><trkpt lat="42.5678315" lon="12.6429595"><ele>132.33333333333334</ele><time>2026-04-24T09:39:04.05Z</time></trkpt><trkpt lat="42.5678498" lon="12.6428463"><ele>132.5</ele><time>2026-04-24T09:39:05.051Z</time></trkpt><trkpt lat="42.5678742" lon="12.6427393"><ele>132.66666666666669</ele><time>2026-04-24T09:39:06.05Z</time></trkpt><trkpt lat="42.5679062" lon="12.6426253"><ele>132.83333333333334</ele><time>2026-04-24T09:39:07.051Z</time></trkpt><trkpt lat="42.5679316" lon="12.6425172"><ele>133.0</ele><time>2026-04-24T09:39:08.051Z</time></trkpt><trkpt lat="42.567953" lon="12.6424084"><ele>132.0</ele><time>2026-04-24T09:39:09.051Z</time></trkpt><trkpt lat="42.5679833" lon="12.6422995"><ele>131.0</ele><time>2026-04-24T09:39:10.051Z</time></trkpt><trkpt lat="42.5680161" lon="12.6421982"><ele>130.0</ele><time>2026-04-24T09:39:11.051Z</time></trkpt><trkpt lat="42.5680225" lon="12.6420949"><ele>129.0</ele><time>2026-04-24T09:39:12.05Z</time></trkpt><trkpt lat="42.5680385" lon="12.6419952"><ele>128.0</ele><time>2026-04-24T09:39:13.05Z</time></trkpt><trkpt lat="42.5680719" lon="12.6418306"><ele>127.0</ele><time>2026-04-24T09:39:15.05Z</time></trkpt><trkpt lat="42.5681224" lon="12.641689"><ele>126.83333333333334</ele><time>2026-04-24T09:39:17.05Z</time></trkpt><trkpt lat="42.5681786" lon="12.6415929"><ele>126.66666666666667</ele><time>2026-04-24T09:39:19.05Z</time></trkpt><trkpt lat="42.5682894" lon="12.6415819"><ele>126.5</ele><time>2026-04-24T09:39:21.05Z</time></trkpt><trkpt lat="42.5683543" lon="12.6415966"><ele>126.33333333333334</ele><time>2026-04-24T09:39:22.051Z</time></trkpt><trkpt lat="42.5684304" lon="12.6416125"><ele>126.16666666666667</ele><time>2026-04-24T09:39:23.05Z</time></trkpt><trkpt lat="42.568498" lon="12.6416558"><ele>126.0</ele><time>2026-04-24T09:39:24.05Z</time></trkpt><trkpt lat="42.5685749" lon="12.6416899"><ele>126.0</ele><time>2026-04-24T09:39:25.05Z</time></trkpt><trkpt lat="42.5686693" lon="12.6417305"><ele>126.0</ele><time>2026-04-24T09:39:26.05Z</time></trkpt><trkpt lat="42.5687543" lon="12.6417816"><ele>126.0</ele><time>2026-04-24T09:39:27.05Z</time></trkpt><trkpt lat="42.5688288" lon="12.6418465"><ele>126.0</ele><time>2026-04-24T09:39:28.051Z</time></trkpt><trkpt lat="42.5689166" lon="12.6419087"><ele>126.0</ele><time>2026-04-24T09:39:29.051Z</time></trkpt><trkpt lat="42.5689976" lon="12.6419963"><ele>126.0</ele><time>2026-04-24T09:39:30.05Z</time></trkpt><trkpt lat="42.5690941" lon="12.6420996"><ele>126.0</ele><time>2026-04-24T09:39:31.05Z</time></trkpt><trkpt lat="42.5692186" lon="12.6422313"><ele>126.0</ele><time>2026-04-24T09:39:32.05Z</time></trkpt><trkpt lat="42.5693373" lon="12.642382"><ele>126.0</ele><time>2026-04-24T09:39:33.05Z</time></trkpt><trkpt lat="42.5694356" lon="12.6425285"><ele>126.0</ele><time>2026-04-24T09:39:34.05Z</time></trkpt><trkpt lat="42.5695187" lon="12.6426789"><ele>126.0</ele><time>2026-04-24T09:39:35.05Z</time></trkpt><trkpt lat="42.5695937" lon="12.6428334"><ele>126.0</ele><time>2026-04-24T09:39:36.05Z</time></trkpt><trkpt lat="42.5696615" lon="12.6429948"><ele>126.0</ele><time>2026-04-24T09:39:37.051Z</time></trkpt><trkpt lat="42.5697163" lon="12.6431577"><ele>126.0</ele><time>2026-04-24T09:39:38.051Z</time></trkpt><trkpt lat="42.5697589" lon="12.6433292"><ele>126.0</ele><time>2026-04-24T09:39:39.05Z</time></trkpt><trkpt lat="42.5697924" lon="12.6435026"><ele>126.0</ele><time>2026-04-24T09:39:40.051Z</time></trkpt><trkpt lat="42.5698153" lon="12.6436825"><ele>126.0</ele><time>2026-04-24T09:39:41.051Z</time></trkpt><trkpt lat="42.5698207" lon="12.6438617"><ele>126.0</ele><time>2026-04-24T09:39:42.05Z</time></trkpt><trkpt lat="42.5698193" lon="12.644048"><ele>126.0</ele><time>2026-04-24T09:39:43.05Z</time></trkpt><trkpt lat="42.569808" lon="12.6442367"><ele>126.0</ele><time>2026-04-24T09:39:44.051Z</time></trkpt><trkpt lat="42.5697913" lon="12.6444204"><ele>126.0</ele><time>2026-04-24T09:39:45.05Z</time></trkpt><trkpt lat="42.5697746" lon="12.6445921"><ele>126.5</ele><time>2026-04-24T09:39:46.05Z</time></trkpt><trkpt lat="42.569754" lon="12.6447729"><ele>127.0</ele><time>2026-04-24T09:39:47.051Z</time></trkpt><trkpt lat="42.5697304" lon="12.6449547"><ele>127.5</ele><time>2026-04-24T09:39:48.05Z</time></trkpt><trkpt lat="42.5697029" lon="12.6451363"><ele>128.0</ele><time>2026-04-24T09:39:49.051Z</time></trkpt><trkpt lat="42.5696939" lon="12.6453231"><ele>128.5</ele><time>2026-04-24T09:39:50.05Z</time></trkpt><trkpt lat="42.5696827" lon="12.6454967"><ele>129.0</ele><time>2026-04-24T09:39:51.051Z</time></trkpt><trkpt lat="42.5696859" lon="12.6456488"><ele>129.5</ele><time>2026-04-24T09:39:52.051Z</time></trkpt><trkpt lat="42.5696894" lon="12.645834"><ele>130.0</ele><time>2026-04-24T09:39:53.05Z</time></trkpt><trkpt lat="42.569692" lon="12.6460254"><ele>129.75</ele><time>2026-04-24T09:39:54.05Z</time></trkpt><trkpt lat="42.5697048" lon="12.6462256"><ele>129.5</ele><time>2026-04-24T09:39:55.05Z</time></trkpt><trkpt lat="42.5697057" lon="12.6464215"><ele>129.25</ele><time>2026-04-24T09:39:56.05Z</time></trkpt><trkpt lat="42.5697145" lon="12.6466007"><ele>129.0</ele><time>2026-04-24T09:39:57.05Z</time></trkpt><trkpt lat="42.5697167" lon="12.6468007"><ele>129.0</ele><time>2026-04-24T09:39:58.05Z</time></trkpt><trkpt lat="42.5697245" lon="12.6469958"><ele>129.0</ele><time>2026-04-24T09:39:59.051Z</time></trkpt><trkpt lat="42.5697358" lon="12.6471989"><ele>129.0</ele><time>2026-04-24T09:40:00.05Z</time></trkpt><trkpt lat="42.5697369" lon="12.6473946"><ele>129.0</ele><time>2026-04-24T09:40:01.051Z</time></trkpt><trkpt lat="42.5697554" lon="12.6475947"><ele>129.0</ele><time>2026-04-24T09:40:02.051Z</time></trkpt><trkpt lat="42.5697646" lon="12.6477862"><ele>129.0</ele><time>2026-04-24T09:40:03.05Z</time></trkpt><trkpt lat="42.5697608" lon="12.6479735"><ele>129.0</ele><time>2026-04-24T09:40:04.05Z</time></trkpt><trkpt lat="42.5697456" lon="12.6481671"><ele>129.0</ele><time>2026-04-24T09:40:05.05Z</time></trkpt><trkpt lat="42.5697613" lon="12.6483447"><ele>128.75</ele><time>2026-04-24T09:40:06.05Z</time></trkpt><trkpt lat="42.5697571" lon="12.6485324"><ele>128.5</ele><time>2026-04-24T09:40:07.051Z</time></trkpt><trkpt lat="42.5697572" lon="12.6487071"><ele>128.25</ele><time>2026-04-24T09:40:08.05Z</time></trkpt><trkpt lat="42.5697632" lon="12.6489137"><ele>128.0</ele><time>2026-04-24T09:40:09.051Z</time></trkpt><trkpt lat="42.5697678" lon="12.6490851"><ele>128.0</ele><time>2026-04-24T09:40:10.051Z</time></trkpt><trkpt lat="42.5697719" lon="12.6492496"><ele>128.0</ele><time>2026-04-24T09:40:11.051Z</time></trkpt><trkpt lat="42.5697749" lon="12.6493953"><ele>128.0</ele><time>2026-04-24T09:40:12.051Z</time></trkpt><trkpt lat="42.5697761" lon="12.6495397"><ele>128.0</ele><time>2026-04-24T09:40:13.05Z</time></trkpt><trkpt lat="42.5697772" lon="12.6496583"><ele>128.0</ele><time>2026-04-24T09:40:14.05Z</time></trkpt><trkpt lat="42.5697727" lon="12.6497712"><ele>128.28571428571428</ele><time>2026-04-24T09:40:15.05Z</time></trkpt><trkpt lat="42.5697756" lon="12.6498825"><ele>128.57142857142856</ele><time>2026-04-24T09:40:16.05Z</time></trkpt><trkpt lat="42.5697903" lon="12.6499702"><ele>128.85714285714286</ele><time>2026-04-24T09:40:17.051Z</time></trkpt><trkpt lat="42.5697969" lon="12.6500799"><ele>129.14285714285714</ele><time>2026-04-24T09:40:18.05Z</time></trkpt><trkpt lat="42.5697981" lon="12.6501857"><ele>129.42857142857144</ele><time>2026-04-24T09:40:19.051Z</time></trkpt><trkpt lat="42.5697957" lon="12.6502789"><ele>129.71428571428572</ele><time>2026-04-24T09:40:20.05Z</time></trkpt><trkpt lat="42.569799" lon="12.6503674"><ele>130.0</ele><time>2026-04-24T09:40:21.05Z</time></trkpt><trkpt lat="42.5698133" lon="12.6504589"><ele>130.0</ele><time>2026-04-24T09:40:22.051Z</time></trkpt><trkpt lat="42.5698592" lon="12.6506218"><ele>130.0</ele><time>2026-04-24T09:40:24.05Z</time></trkpt><trkpt lat="42.5698959" lon="12.6506964"><ele>130.0</ele><time>2026-04-24T09:40:25.05Z</time></trkpt><trkpt lat="42.5699322" lon="12.6507856"><ele>130.0</ele><time>2026-04-24T09:40:26.051Z</time></trkpt><trkpt lat="42.5699655" lon="12.6508781"><ele>130.0</ele><time>2026-04-24T09:40:27.051Z</time></trkpt><trkpt lat="42.5699821" lon="12.6509792"><ele>130.0</ele><time>2026-04-24T09:40:28.051Z</time></trkpt><trkpt lat="42.5699931" lon="12.6511773"><ele>130.4</ele><time>2026-04-24T09:40:30.05Z</time></trkpt><trkpt lat="42.5699953" lon="12.65129"><ele>130.8</ele><time>2026-04-24T09:40:31.05Z</time></trkpt><trkpt lat="42.5699902" lon="12.6514099"><ele>131.2</ele><time>2026-04-24T09:40:32.051Z</time></trkpt><trkpt lat="42.5700137" lon="12.6515776"><ele>131.6</ele><time>2026-04-24T09:40:33.05Z</time></trkpt><trkpt lat="42.5699381" lon="12.6516044"><ele>132.0</ele><time>2026-04-24T09:40:34.05Z</time></trkpt><trkpt lat="42.5699022" lon="12.6516952"><ele>132.0</ele><time>2026-04-24T09:40:35.05Z</time></trkpt><trkpt lat="42.5697837" lon="12.6517959"><ele>132.0</ele><time>2026-04-24T09:40:37.051Z</time></trkpt><trkpt lat="42.5697312" lon="12.6518437"><ele>132.0</ele><time>2026-04-24T09:40:38.05Z</time></trkpt><trkpt lat="42.5696323" lon="12.6518646"><ele>132.0</ele><time>2026-04-24T09:40:40.05Z</time></trkpt><trkpt lat="42.5695691" lon="12.6518922"><ele>132.0</ele><time>2026-04-24T09:40:41.05Z</time></trkpt><trkpt lat="42.5694848" lon="12.652"><ele>132.16666666666666</ele><time>2026-04-24T09:40:43.051Z</time></trkpt><trkpt lat="42.5694706" lon="12.652087"><ele>132.33333333333334</ele><time>2026-04-24T09:40:44.051Z</time></trkpt><trkpt lat="42.5695042" lon="12.6522263"><ele>132.5</ele><time>2026-04-24T09:40:46.051Z</time></trkpt><trkpt lat="42.5695229" lon="12.6523351"><ele>132.66666666666669</ele><time>2026-04-24T09:40:48.05Z</time></trkpt><trkpt lat="42.569524" lon="12.6524451"><ele>132.83333333333334</ele><time>2026-04-24T09:40:50.051Z</time></trkpt><trkpt lat="42.5695432" lon="12.6525545"><ele>133.0</ele><time>2026-04-24T09:40:52.05Z</time></trkpt><trkpt lat="42.5695576" lon="12.6526459"><ele>132.66666666666669</ele><time>2026-04-24T09:40:54.051Z</time></trkpt><trkpt lat="42.5695751" lon="12.6527597"><ele>132.33333333333334</ele><time>2026-04-24T09:40:57.051Z</time></trkpt><trkpt lat="42.569577" lon="12.652868"><ele>132.0</ele><time>2026-04-24T09:41:00.05Z</time></trkpt><trkpt lat="42.5695813" lon="12.6529635"><ele>131.66666666666666</ele><time>2026-04-24T09:41:02.05Z</time></trkpt><trkpt lat="42.5695996" lon="12.6530599"><ele>131.33333333333331</ele><time>2026-04-24T09:41:04.051Z</time></trkpt><trkpt lat="42.5696247" lon="12.6531408"><ele>131.0</ele><time>2026-04-24T09:41:06.051Z</time></trkpt><trkpt lat="42.5696369" lon="12.6532667"><ele>131.0</ele><time>2026-04-24T09:41:09.05Z</time></trkpt><trkpt lat="42.5696168" lon="12.6533623"><ele>131.0</ele><time>2026-04-24T09:41:11.05Z</time></trkpt><trkpt lat="42.5696005" lon="12.6534635"><ele>131.0</ele><time>2026-04-24T09:41:13.05Z</time></trkpt><trkpt lat="42.5695922" lon="12.6535671"><ele>131.0</ele><time>2026-04-24T09:41:15.05Z</time></trkpt><trkpt lat="42.569572" lon="12.6536803"><ele>131.0</ele><time>2026-04-24T09:41:17.05Z</time></trkpt><trkpt lat="42.5695484" lon="12.6537938"><ele>131.0</ele><time>2026-04-24T09:41:19.05Z</time></trkpt><trkpt lat="42.5695018" lon="12.6539306"><ele>130.8</ele><time>2026-04-24T09:41:21.05Z</time></trkpt><trkpt lat="42.5694804" lon="12.6540598"><ele>130.6</ele><time>2026-04-24T09:41:23.05Z</time></trkpt><trkpt lat="42.5694549" lon="12.6542017"><ele>130.4</ele><time>2026-04-24T09:41:25.05Z</time></trkpt><trkpt lat="42.5694321" lon="12.6543549"><ele>130.2</ele><time>2026-04-24T09:41:27.05Z</time></trkpt><trkpt lat="42.5694037" lon="12.6545013"><ele>130.0</ele><time>2026-04-24T09:41:29.05Z</time></trkpt><trkpt lat="42.5693948" lon="12.6545893"><ele>129.8</ele><time>2026-04-24T09:41:30.05Z</time></trkpt><trkpt lat="42.5693769" lon="12.6547426"><ele>129.6</ele><time>2026-04-24T09:41:32.05Z</time></trkpt><trkpt lat="42.5693515" lon="12.6548867"><ele>129.4</ele><time>2026-04-24T09:41:34.05Z</time></trkpt><trkpt lat="42.5693288" lon="12.6550339"><ele>129.2</ele><time>2026-04-24T09:41:36.05Z</time></trkpt><trkpt lat="42.5693023" lon="12.655163"><ele>129.0</ele><time>2026-04-24T09:41:38.051Z</time></trkpt><trkpt lat="42.5692596" lon="12.6552327"><ele>129.0</ele><time>2026-04-24T09:41:40.051Z</time></trkpt><trkpt lat="42.5691789" lon="12.6552385"><ele>129.0</ele><time>2026-04-24T09:41:43.051Z</time></trkpt><trkpt lat="42.5691149" lon="12.6552347"><ele>129.0</ele><time>2026-04-24T09:41:45.051Z</time></trkpt><trkpt lat="42.5689697" lon="12.6551667"><ele>129.0</ele><time>2026-04-24T09:41:47.05Z</time></trkpt><trkpt lat="42.5689024" lon="12.6551082"><ele>129.0</ele><time>2026-04-24T09:41:48.051Z</time></trkpt><trkpt lat="42.5688315" lon="12.6550783"><ele>129.0</ele><time>2026-04-24T09:41:49.05Z</time></trkpt><trkpt lat="42.5687613" lon="12.6550437"><ele>129.0</ele><time>2026-04-24T09:41:50.051Z</time></trkpt><trkpt lat="42.5686624" lon="12.6549986"><ele>129.0</ele><time>2026-04-24T09:41:52.05Z</time></trkpt><trkpt lat="42.56857" lon="12.6549779"><ele>129.0</ele><time>2026-04-24T09:41:54.05Z</time></trkpt><trkpt lat="42.5684939" lon="12.6549301"><ele>129.0</ele><time>2026-04-24T09:41:57.05Z</time></trkpt><trkpt lat="42.5684193" lon="12.654887"><ele>129.0</ele><time>2026-04-24T09:42:40.051Z</time></trkpt><trkpt lat="42.5683572" lon="12.6549623"><ele>129.28571428571428</ele><time>2026-04-24T09:42:42.05Z</time></trkpt><trkpt lat="42.5683062" lon="12.65502"><ele>129.57142857142856</ele><time>2026-04-24T09:42:43.05Z</time></trkpt><trkpt lat="42.5682614" lon="12.6550921"><ele>129.85714285714286</ele><time>2026-04-24T09:42:44.05Z</time></trkpt><trkpt lat="42.5682185" lon="12.6551596"><ele>130.14285714285714</ele><time>2026-04-24T09:42:45.05Z</time></trkpt><trkpt lat="42.5682149" lon="12.6552501"><ele>130.42857142857144</ele><time>2026-04-24T09:42:46.05Z</time></trkpt><trkpt lat="42.5681734" lon="12.6553747"><ele>130.71428571428572</ele><time>2026-04-24T09:42:48.05Z</time></trkpt><trkpt lat="42.5682111" lon="12.6554483"><ele>131.0</ele><time>2026-04-24T09:42:49.05Z</time></trkpt><trkpt lat="42.5682327" lon="12.6555319"><ele>131.0</ele><time>2026-04-24T09:42:50.05Z</time></trkpt><trkpt lat="42.5682436" lon="12.6556504"><ele>131.0</ele><time>2026-04-24T09:42:51.05Z</time></trkpt><trkpt lat="42.5682574" lon="12.6557547"><ele>131.0</ele><time>2026-04-24T09:42:52.051Z</time></trkpt><trkpt lat="42.5682541" lon="12.6559212"><ele>131.0</ele><time>2026-04-24T09:42:54.05Z</time></trkpt><trkpt lat="42.5682465" lon="12.6560173"><ele>131.0</ele><time>2026-04-24T09:42:55.05Z</time></trkpt><trkpt lat="42.5682473" lon="12.656162"><ele>131.2</ele><time>2026-04-24T09:42:57.051Z</time></trkpt><trkpt lat="42.5682302" lon="12.6563095"><ele>131.39999999999998</ele><time>2026-04-24T09:42:59.051Z</time></trkpt><trkpt lat="42.5682139" lon="12.6563949"><ele>131.6</ele><time>2026-04-24T09:43:00.051Z</time></trkpt><trkpt lat="42.5682431" lon="12.6565591"><ele>131.79999999999998</ele><time>2026-04-24T09:43:02.051Z</time></trkpt><trkpt lat="42.5682612" lon="12.6567372"><ele>132.0</ele><time>2026-04-24T09:43:04.051Z</time></trkpt><trkpt lat="42.5682384" lon="12.6568917"><ele>132.0</ele><time>2026-04-24T09:43:06.051Z</time></trkpt><trkpt lat="42.5682073" lon="12.656999"><ele>132.0</ele><time>2026-04-24T09:43:07.05Z</time></trkpt><trkpt lat="42.5681799" lon="12.6571447"><ele>132.0</ele><time>2026-04-24T09:43:09.051Z</time></trkpt><trkpt lat="42.5681509" lon="12.6572633"><ele>132.0</ele><time>2026-04-24T09:43:11.05Z</time></trkpt><trkpt lat="42.5681075" lon="12.6573311"><ele>132.0</ele><time>2026-04-24T09:43:13.051Z</time></trkpt><trkpt lat="42.5680525" lon="12.657397"><ele>132.0</ele><time>2026-04-24T09:43:16.051Z</time></trkpt><trkpt lat="42.5680294" lon="12.6575563"><ele>132.0</ele><time>2026-04-24T09:43:20.051Z</time></trkpt><trkpt lat="42.5680615" lon="12.6576619"><ele>132.0</ele><time>2026-04-24T09:43:22.05Z</time></trkpt><trkpt lat="42.5681169" lon="12.6577575"><ele>132.0</ele><time>2026-04-24T09:43:25.051Z</time></trkpt><trkpt lat="42.5682043" lon="12.6577575"><ele>132.0</ele><time>2026-04-24T09:43:27.051Z</time></trkpt><trkpt lat="42.5682709" lon="12.6577415"><ele>132.0</ele><time>2026-04-24T09:43:28.05Z</time></trkpt><trkpt lat="42.5683627" lon="12.657725"><ele>132.0</ele><time>2026-04-24T09:43:29.05Z</time></trkpt><trkpt lat="42.568461" lon="12.6577096"><ele>132.0</ele><time>2026-04-24T09:43:30.05Z</time></trkpt><trkpt lat="42.5685855" lon="12.6577059"><ele>132.0</ele><time>2026-04-24T09:43:31.05Z</time></trkpt><trkpt lat="42.5687276" lon="12.6577037"><ele>132.0</ele><time>2026-04-24T09:43:32.05Z</time></trkpt><trkpt lat="42.568871" lon="12.6577034"><ele>132.0</ele><time>2026-04-24T09:43:33.051Z</time></trkpt><trkpt lat="42.5690188" lon="12.6576932"><ele>132.4</ele><time>2026-04-24T09:43:34.05Z</time></trkpt><trkpt lat="42.5691618" lon="12.6576862"><ele>132.79999999999998</ele><time>2026-04-24T09:43:35.05Z</time></trkpt><trkpt lat="42.5693037" lon="12.6576797"><ele>133.2</ele><time>2026-04-24T09:43:36.051Z</time></trkpt><trkpt lat="42.5693683" lon="12.6576805"><ele>133.6</ele><time>2026-04-24T09:43:37.05Z</time></trkpt><trkpt lat="42.5694396" lon="12.657645"><ele>134.0</ele><time>2026-04-24T09:43:38.051Z</time></trkpt><trkpt lat="42.5695177" lon="12.6576582"><ele>133.8</ele><time>2026-04-24T09:43:39.05Z</time></trkpt><trkpt lat="42.5695848" lon="12.6576837"><ele>133.60000000000002</ele><time>2026-04-24T09:43:40.05Z</time></trkpt><trkpt lat="42.569657" lon="12.6577512"><ele>133.4</ele><time>2026-04-24T09:43:42.05Z</time></trkpt><trkpt lat="42.569694" lon="12.6579097"><ele>133.20000000000002</ele><time>2026-04-24T09:43:44.051Z</time></trkpt><trkpt lat="42.5697005" lon="12.6580436"><ele>133.0</ele><time>2026-04-24T09:43:45.05Z</time></trkpt><trkpt lat="42.5697045" lon="12.6581541"><ele>132.6</ele><time>2026-04-24T09:43:46.051Z</time></trkpt><trkpt lat="42.5697104" lon="12.6582542"><ele>132.20000000000002</ele><time>2026-04-24T09:43:47.05Z</time></trkpt><trkpt lat="42.5697074" lon="12.6583482"><ele>131.8</ele><time>2026-04-24T09:43:48.051Z</time></trkpt><trkpt lat="42.5696837" lon="12.6585032"><ele>131.4</ele><time>2026-04-24T09:43:50.05Z</time></trkpt><trkpt lat="42.5696754" lon="12.6586409"><ele>131.0</ele><time>2026-04-24T09:43:52.05Z</time></trkpt><trkpt lat="42.5696692" lon="12.6588004"><ele>131.0</ele><time>2026-04-24T09:43:54.051Z</time></trkpt><trkpt lat="42.5697372" lon="12.6588279"><ele>131.0</ele><time>2026-04-24T09:44:28.05Z</time></trkpt><trkpt lat="42.5697458" lon="12.6589838"><ele>131.0</ele><time>2026-04-24T09:44:30.05Z</time></trkpt><trkpt lat="42.569757" lon="12.6591004"><ele>131.0</ele><time>2026-04-24T09:44:31.05Z</time></trkpt><trkpt lat="42.5697562" lon="12.6592248"><ele>131.0</ele><time>2026-04-24T09:44:32.05Z</time></trkpt><trkpt lat="42.5697611" lon="12.6593544"><ele>131.2</ele><time>2026-04-24T09:44:33.05Z</time></trkpt><trkpt lat="42.5697466" lon="12.6595164"><ele>131.39999999999998</ele><time>2026-04-24T09:44:34.051Z</time></trkpt><trkpt lat="42.5697506" lon="12.6596421"><ele>131.6</ele><time>2026-04-24T09:44:35.05Z</time></trkpt><trkpt lat="42.5697604" lon="12.6597784"><ele>131.79999999999998</ele><time>2026-04-24T09:44:36.05Z</time></trkpt><trkpt lat="42.5697549" lon="12.6598736"><ele>132.0</ele><time>2026-04-24T09:44:38.05Z</time></trkpt><trkpt lat="42.5696755" lon="12.6599067"><ele>132.0</ele><time>2026-04-24T09:44:40.05Z</time></trkpt><trkpt lat="42.5696042" lon="12.6599147"><ele>132.0</ele><time>2026-04-24T09:44:41.05Z</time></trkpt><trkpt lat="42.5695247" lon="12.65988"><ele>132.0</ele><time>2026-04-24T09:44:42.051Z</time></trkpt><trkpt lat="42.5694648" lon="12.6598469"><ele>132.0</ele><time>2026-04-24T09:44:43.051Z</time></trkpt><trkpt lat="42.5693933" lon="12.6598477"><ele>132.0</ele><time>2026-04-24T09:44:45.05Z</time></trkpt><trkpt lat="42.5693335" lon="12.6598867"><ele>132.0</ele><time>2026-04-24T09:44:47.05Z</time></trkpt><trkpt lat="42.5692928" lon="12.6600021"><ele>132.0</ele><time>2026-04-24T09:44:49.05Z</time></trkpt><trkpt lat="42.5693263" lon="12.6601659"><ele>132.0</ele><time>2026-04-24T09:44:51.05Z</time></trkpt><trkpt lat="42.5693446" lon="12.660262"><ele>132.0</ele><time>2026-04-24T09:44:55.051Z</time></trkpt><trkpt lat="42.569331" lon="12.6603631"><ele>132.0</ele><time>2026-04-24T09:44:57.05Z</time></trkpt><trkpt lat="42.5693386" lon="12.6604595"><ele>132.0</ele><time>2026-04-24T09:45:00.051Z</time></trkpt><trkpt lat="42.5693278" lon="12.6605459"><ele>132.0</ele><time>2026-04-24T09:45:03.051Z</time></trkpt></trkseg></trk></gpx>